Time;durP1;ratioP1;P1;durP2;ratioP2;P2;SDS_P1;SDS_P2;PMS_P1;PMS_P2;Temp;Humidity;BMP_temperature;BMP_pressure;BME280_temperature;BME280_humidity;BME280_pressure;Samples;Min_cycle;Max_cycle;Signal;HPM_P1;HPM_P2
2023/08/13 00:00:23;;;;;;;5.47;3.92;;;;;;;;;;2607483;22;20165;-94
2023/08/13 00:01:23;;;;;;;4.88;4.05;;;;;;;;;;2612488;22;20022;-93
2023/08/13 00:02:23;;;;;;;4.10;3.53;;;;;;;;;;2625912;22;20047;-93
2023/08/13 00:03:24;;;;;;;6.53;3.80;;;;;;;;;;2625721;22;19991;-93
2023/08/13 00:04:24;;;;;;;6.13;3.95;;;;;;;;;;2607872;22;20085;-93
2023/08/13 01:08:45;;;;;;;6.15;4.75;;;;;;;;;;2595041;22;20012;-92
2023/08/13 01:09:49;;;;;;;7.10;4.15;;;;;;;;;;2581605;23;20350;-93
2023/08/13 01:11:03;;;;;;;5.35;4.35;;;;;;;;;;2581560;23;20054;-94
2023/08/13 01:12:33;;;;;;;5.10;4.35;;;;;;;;;;2571518;23;20315;-92
2023/08/13 01:13:41;;;;;;;5.45;4.45;;;;;;;;;;2581631;23;20075;-93
2023/08/13 01:14:51;;;;;;;7.70;4.50;;;;;;;;;;2570451;23;20466;-93
2023/08/13 01:15:55;;;;;;;7.03;4.30;;;;;;;;;;2588252;22;19996;-93
2023/08/13 01:16:58;;;;;;;6.50;4.38;;;;;;;;;;2581712;23;20243;-92
2023/08/13 01:18:01;;;;;;;7.90;4.40;;;;;;;;;;2586011;23;20003;-93
2023/08/13 01:19:04;;;;;;;5.75;4.15;;;;;;;;;;2571416;23;20142;-92
2023/08/13 01:44:42;;;;;;;6.60;4.68;;;;;;;;;;2595109;22;20009;-93
2023/08/13 01:45:42;;;;;;;7.32;4.75;;;;;;;;;;2599830;22;19992;-94
2023/08/13 01:46:43;;;;;;;5.60;4.13;;;;;;;;;;2594157;22;20000;-93
2023/08/13 01:47:45;;;;;;;5.07;4.05;;;;;;;;;;2599247;22;19991;-94
2023/08/13 01:48:45;;;;;;;8.90;5.07;;;;;;;;;;2599625;22;19995;-94
2023/08/13 01:49:46;;;;;;;7.45;4.97;;;;;;;;;;2594588;22;20325;-92
2023/08/13 01:50:47;;;;;;;7.88;4.35;;;;;;;;;;2594628;22;20015;-92
2023/08/13 01:51:47;;;;;;;6.68;4.70;;;;;;;;;;2598792;22;19992;-95
2023/08/13 01:52:48;;;;;;;6.72;4.70;;;;;;;;;;2594332;22;20023;-94
2023/08/13 01:53:49;;;;;;;8.15;5.28;;;;;;;;;;2581513;22;20002;-94
2023/08/13 01:54:49;;;;;;;6.60;4.60;;;;;;;;;;2582058;23;20115;-94
2023/08/13 01:55:50;;;;;;;7.85;5.07;;;;;;;;;;2581772;23;20327;-93
2023/08/13 01:56:50;;;;;;;7.18;4.90;;;;;;;;;;2581723;23;19988;-91
2023/08/13 02:09:38;;;;;;;7.65;4.97;;;;;;;;;;2609272;22;20066;-92
2023/08/13 02:10:38;;;;;;;5.55;4.78;;;;;;;;;;2594387;22;20500;-93
2023/08/13 02:11:38;;;;;;;9.82;5.38;;;;;;;;;;2581850;23;20066;-93
2023/08/13 02:12:39;;;;;;;7.32;4.82;;;;;;;;;;2581702;23;20453;-93
2023/08/13 02:13:40;;;;;;;10.85;6.20;;;;;;;;;;2581724;23;19992;-94
2023/08/13 02:14:40;;;;;;;5.70;5.07;;;;;;;;;;2594382;22;20000;-94
2023/08/13 02:15:41;;;;;;;7.75;4.97;;;;;;;;;;2611699;22;20113;-93
2023/08/13 02:16:44;;;;;;;6.20;4.90;;;;;;;;;;2594383;22;20098;-92
2023/08/13 02:17:45;;;;;;;6.35;4.90;;;;;;;;;;2581967;22;20255;-93
2023/08/13 02:18:46;;;;;;;7.07;4.80;;;;;;;;;;2598816;22;20086;-93
2023/08/13 02:19:47;;;;;;;8.77;5.22;;;;;;;;;;2603008;22;20011;-93
2023/08/13 02:20:47;;;;;;;6.13;4.72;;;;;;;;;;2607130;22;20345;-93
2023/08/13 02:21:47;;;;;;;8.93;5.03;;;;;;;;;;2607436;22;20131;-93
2023/08/13 02:22:49;;;;;;;8.20;4.93;;;;;;;;;;2595136;22;20449;-93
2023/08/13 02:23:49;;;;;;;7.63;5.35;;;;;;;;;;2595348;22;19996;-93
2023/08/13 02:24:50;;;;;;;6.88;5.55;;;;;;;;;;2612630;22;20359;-93
2023/08/13 02:25:52;;;;;;;7.97;4.57;;;;;;;;;;2172860;22;10000662;-93
2023/08/13 02:26:52;;;;;;;8.07;5.35;;;;;;;;;;2595633;22;20017;-93
2023/08/13 02:27:52;;;;;;;5.70;5.03;;;;;;;;;;2608029;22;20531;-93
2023/08/13 02:28:53;;;;;;;7.80;5.10;;;;;;;;;;2595351;22;20345;-92
2023/08/13 02:29:54;;;;;;;6.47;5.45;;;;;;;;;;2595689;22;19991;-92
2023/08/13 02:30:54;;;;;;;7.45;5.32;;;;;;;;;;2595514;22;19992;-93
2023/08/13 02:31:55;;;;;;;9.10;5.28;;;;;;;;;;2594966;22;20014;-93
2023/08/13 02:32:55;;;;;;;11.48;5.38;;;;;;;;;;2595709;22;20066;-93
2023/08/13 02:33:55;;;;;;;7.20;4.90;;;;;;;;;;2608102;22;20471;-93
2023/08/13 02:34:56;;;;;;;7.72;5.18;;;;;;;;;;2595424;22;20394;-94
2023/08/13 02:35:56;;;;;;;7.80;5.32;;;;;;;;;;2595207;22;20133;-93
2023/08/13 02:36:57;;;;;;;6.43;5.38;;;;;;;;;;2612590;22;20366;-94
2023/08/13 02:37:57;;;;;;;7.85;5.35;;;;;;;;;;2607817;22;20188;-94
2023/08/13 02:38:59;;;;;;;7.60;5.72;;;;;;;;;;2608482;22;19995;-93
2023/08/13 02:39:59;;;;;;;7.22;5.55;;;;;;;;;;2607900;22;20488;-94
2023/08/13 02:41:00;;;;;;;10.43;5.63;;;;;;;;;;2594973;22;20003;-93
2023/08/13 02:42:01;;;;;;;5.63;4.90;;;;;;;;;;2594951;22;19992;-94
2023/08/13 02:43:02;;;;;;;8.57;5.85;;;;;;;;;;2595063;22;20026;-94
2023/08/13 03:53:40;;;;;;;7.10;5.85;;;;;;;;;;2588463;22;21125;-93
2023/08/13 03:54:41;;;;;;;7.25;6.13;;;;;;;;;;2625806;22;20089;-93
2023/08/13 03:55:41;;;;;;;7.53;5.45;;;;;;;;;;2607679;22;20011;-92
2023/08/13 03:56:42;;;;;;;7.15;5.70;;;;;;;;;;2612008;22;20049;-93
2023/08/13 03:57:44;;;;;;;7.70;5.45;;;;;;;;;;2609714;22;20006;-93
2023/08/13 04:08:25;;;;;;;7.05;5.30;;;;;;;;;;2613727;22;20242;-94
2023/08/13 04:09:25;;;;;;;5.90;5.13;;;;;;;;;;2607702;22;20078;-94
2023/08/13 04:10:26;;;;;;;8.73;5.10;;;;;;;;;;2612063;22;20090;-93
2023/08/13 04:11:26;;;;;;;6.95;5.03;;;;;;;;;;2625812;22;20014;-94
2023/08/13 04:12:26;;;;;;;7.00;4.95;;;;;;;;;;2607614;22;20399;-94
2023/08/13 04:13:27;;;;;;;7.63;5.07;;;;;;;;;;2594865;22;20441;-93
2023/08/13 04:14:27;;;;;;;6.47;5.13;;;;;;;;;;2594907;22;20414;-95
2023/08/13 04:15:28;;;;;;;6.00;5.07;;;;;;;;;;2594988;22;20432;-93
2023/08/13 04:16:28;;;;;;;7.57;5.28;;;;;;;;;;2611997;22;19995;-93
2023/08/13 04:17:29;;;;;;;5.60;4.82;;;;;;;;;;2625729;22;19990;-93
2023/08/13 04:25:39;;;;;;;7.15;4.75;;;;;;;;;;2616213;22;20018;-94
2023/08/13 04:26:39;;;;;;;8.15;5.22;;;;;;;;;;2607234;22;20066;-93
2023/08/13 04:27:40;;;;;;;10.30;5.93;;;;;;;;;;2594771;22;20003;-93
2023/08/13 04:28:40;;;;;;;7.43;4.47;;;;;;;;;;2611540;22;20074;-93
2023/08/13 04:29:41;;;;;;;8.93;4.88;;;;;;;;;;2625802;22;20162;-93
2023/08/13 04:30:41;;;;;;;7.22;5.05;;;;;;;;;;2607444;22;20007;-93
2023/08/13 04:31:42;;;;;;;9.40;5.15;;;;;;;;;;2605394;22;20006;-93
2023/08/13 04:32:52;;;;;;;6.40;4.70;;;;;;;;;;2605779;22;20003;-92
2023/08/13 04:33:54;;;;;;;8.23;4.88;;;;;;;;;;2615062;22;20482;-94
2023/08/13 04:34:55;;;;;;;9.05;6.50;;;;;;;;;;2607718;22;20096;-93
2023/08/13 04:35:57;;;;;;;9.13;6.55;;;;;;;;;;2594907;22;20042;-93
2023/08/13 04:36:57;;;;;;;5.72;4.97;;;;;;;;;;2594653;22;19998;-93
2023/08/13 04:37:58;;;;;;;6.18;4.50;;;;;;;;;;2594434;22;20341;-94
2023/08/13 04:38:58;;;;;;;12.35;7.55;;;;;;;;;;2594544;22;20340;-93
2023/08/13 04:39:59;;;;;;;8.65;5.10;;;;;;;;;;2607563;22;20002;-93
2023/08/13 04:41:01;;;;;;;5.45;4.20;;;;;;;;;;2607633;22;19991;-93
2023/08/13 04:42:02;;;;;;;6.97;4.10;;;;;;;;;;2594762;22;20026;-92
2023/08/13 04:43:03;;;;;;;5.93;4.40;;;;;;;;;;2594598;22;20054;-92
2023/08/13 04:44:03;;;;;;;4.85;3.95;;;;;;;;;;2594846;22;20015;-92
2023/08/13 04:45:04;;;;;;;7.25;4.25;;;;;;;;;;2611612;22;20033;-93
2023/08/13 04:46:05;;;;;;;4.43;3.78;;;;;;;;;;2607226;22;19999;-92
2023/08/13 04:47:05;;;;;;;5.75;4.32;;;;;;;;;;2612065;22;19991;-93
2023/08/13 04:48:08;;;;;;;4.13;3.70;;;;;;;;;;2607736;22;19999;-93
2023/08/13 04:49:08;;;;;;;6.70;4.28;;;;;;;;;;2595379;22;19992;-92
2023/08/13 04:50:09;;;;;;;4.53;3.88;;;;;;;;;;2594654;22;20074;-92
2023/08/13 04:51:15;;;;;;;5.00;4.20;;;;;;;;;;2595435;22;20098;-93
2023/08/13 04:52:15;;;;;;;5.07;3.55;;;;;;;;;;2600723;22;20422;-93
2023/08/13 04:53:16;;;;;;;4.32;3.75;;;;;;;;;;2614376;22;20006;-92
2023/08/13 04:54:16;;;;;;;7.65;3.72;;;;;;;;;;2608219;22;20419;-93
2023/08/13 04:55:17;;;;;;;4.90;3.25;;;;;;;;;;2595184;22;20065;-93
2023/08/13 04:56:17;;;;;;;3.90;3.50;;;;;;;;;;2607489;22;19995;-93
2023/08/13 04:57:18;;;;;;;5.05;3.40;;;;;;;;;;2594798;22;19992;-92
2023/08/13 04:58:18;;;;;;;4.55;3.47;;;;;;;;;;2612543;22;20314;-92
2023/08/13 04:59:19;;;;;;;3.83;3.33;;;;;;;;;;2607578;22;20019;-93
2023/08/13 05:00:19;;;;;;;7.25;3.60;;;;;;;;;;2596188;22;19998;-93
2023/08/13 05:01:20;;;;;;;5.45;3.10;;;;;;;;;;2607454;22;19991;-93
2023/08/13 05:02:20;;;;;;;4.95;3.70;;;;;;;;;;2611794;22;19991;-95
2023/08/13 05:03:21;;;;;;;5.35;3.53;;;;;;;;;;2607546;22;20003;-93
2023/08/13 05:04:23;;;;;;;5.28;3.20;;;;;;;;;;2607382;22;20030;-93
2023/08/13 05:05:24;;;;;;;3.60;3.03;;;;;;;;;;2607190;22;20314;-92
2023/08/13 05:06:24;;;;;;;6.25;3.53;;;;;;;;;;2607631;22;20002;-93
2023/08/13 05:07:25;;;;;;;7.07;3.10;;;;;;;;;;2600030;22;19991;-92
2023/08/13 05:08:25;;;;;;;4.00;3.30;;;;;;;;;;2606419;22;20051;-93
2023/08/13 05:09:26;;;;;;;4.93;2.75;;;;;;;;;;2623360;22;19994;-93
2023/08/13 05:10:27;;;;;;;4.82;2.97;;;;;;;;;;2618216;22;19987;-94
2023/08/13 05:11:27;;;;;;;5.30;3.35;;;;;;;;;;2612116;22;20452;-93
2023/08/13 05:12:28;;;;;;;3.50;2.92;;;;;;;;;;2608230;22;20021;-95
2023/08/13 05:13:28;;;;;;;3.78;2.95;;;;;;;;;;2594397;22;20301;-93
2023/08/13 05:14:28;;;;;;;3.40;3.08;;;;;;;;;;2611385;22;20098;-94
2023/08/13 05:15:29;;;;;;;3.80;2.78;;;;;;;;;;2625004;22;20060;-92
2023/08/13 05:16:30;;;;;;;4.25;2.80;;;;;;;;;;2607024;22;19987;-95
2023/08/13 05:17:34;;;;;;;4.53;3.15;;;;;;;;;;2611610;22;19991;-94
2023/08/13 05:18:34;;;;;;;4.38;3.35;;;;;;;;;;2607326;22;20006;-93
2023/08/13 05:19:36;;;;;;;7.43;3.25;;;;;;;;;;2599368;22;19995;-94
2023/08/13 05:20:36;;;;;;;4.40;3.40;;;;;;;;;;2618299;22;19988;-92
2023/08/13 05:21:37;;;;;;;4.18;2.95;;;;;;;;;;2610041;22;20073;-94
2023/08/13 05:22:38;;;;;;;5.43;3.00;;;;;;;;;;2595156;22;20467;-94
2023/08/13 05:23:39;;;;;;;4.38;2.85;;;;;;;;;;2574752;22;20004;-93
2023/08/13 05:24:40;;;;;;;4.45;3.17;;;;;;;;;;2574376;23;20067;-94
2023/08/13 05:25:40;;;;;;;5.85;3.08;;;;;;;;;;2574417;23;20000;-94
2023/08/13 05:26:40;;;;;;;6.35;3.05;;;;;;;;;;2574256;23;19996;-93
2023/08/13 05:27:41;;;;;;;4.25;3.15;;;;;;;;;;2582070;22;20110;-93
2023/08/13 05:28:42;;;;;;;5.65;2.92;;;;;;;;;;2581697;22;20074;-94
2023/08/13 05:29:42;;;;;;;6.35;3.03;;;;;;;;;;2573340;23;20001;-94
2023/08/13 05:30:43;;;;;;;4.28;2.90;;;;;;;;;;2569060;23;20000;-93
2023/08/13 05:31:43;;;;;;;5.03;2.42;;;;;;;;;;2556786;23;20024;-94
2023/08/13 05:32:44;;;;;;;2.90;2.60;;;;;;;;;;2556801;23;20288;-94
2023/08/13 05:33:44;;;;;;;4.00;2.78;;;;;;;;;;2569046;23;20425;-94
2023/08/13 05:34:45;;;;;;;4.95;3.33;;;;;;;;;;2556706;23;20020;-94
2023/08/13 05:35:45;;;;;;;4.18;2.67;;;;;;;;;;2556940;23;20004;-95
2023/08/13 05:36:46;;;;;;;2.88;2.45;;;;;;;;;;2573342;23;19989;-95
2023/08/13 05:37:46;;;;;;;4.68;2.83;;;;;;;;;;2574027;23;20081;-94
2023/08/13 05:38:47;;;;;;;4.57;3.08;;;;;;;;;;2581579;22;20374;-95
2023/08/13 05:39:47;;;;;;;4.53;2.83;;;;;;;;;;2585736;23;20452;-93
2023/08/13 05:40:48;;;;;;;3.40;2.83;;;;;;;;;;2574135;23;20406;-94
2023/08/13 05:41:48;;;;;;;4.93;3.13;;;;;;;;;;2569084;23;20063;-94
2023/08/13 05:42:52;;;;;;;4.40;2.70;;;;;;;;;;2558061;23;20066;-94
2023/08/13 05:43:53;;;;;;;3.55;2.50;;;;;;;;;;2576323;23;19993;-95
2023/08/13 05:44:54;;;;;;;3.88;2.88;;;;;;;;;;2581998;23;19996;-94
2023/08/13 05:45:55;;;;;;;4.18;2.90;;;;;;;;;;2586348;23;20390;-95
2023/08/13 05:47:00;;;;;;;3.50;2.67;;;;;;;;;;2574745;23;19997;-93
2023/08/13 05:48:01;;;;;;;3.78;2.92;;;;;;;;;;2569757;23;20403;-94
2023/08/13 05:49:01;;;;;;;4.47;2.88;;;;;;;;;;2574039;23;19996;-93
2023/08/13 05:50:13;;;;;;;4.60;3.05;;;;;;;;;;2569089;23;20497;-94
2023/08/13 05:51:14;;;;;;;4.25;3.45;;;;;;;;;;2570244;23;20004;-93
2023/08/13 05:52:17;;;;;;;3.75;3.00;;;;;;;;;;2575428;23;20083;-92
2023/08/13 05:53:17;;;;;;;4.10;2.90;;;;;;;;;;2575068;23;19999;-96
2023/08/13 05:54:18;;;;;;;3.92;2.70;;;;;;;;;;2574204;23;20023;-92
2023/08/13 05:55:18;;;;;;;3.80;2.53;;;;;;;;;;2569672;23;20370;-93
2023/08/13 05:56:19;;;;;;;3.67;2.60;;;;;;;;;;2556845;23;19997;-93
2023/08/13 05:57:21;;;;;;;7.68;2.90;;;;;;;;;;2572839;23;19992;-93
2023/08/13 05:58:21;;;;;;;3.42;2.88;;;;;;;;;;2582496;23;20015;-93
2023/08/13 05:59:27;;;;;;;4.38;3.40;;;;;;;;;;2570447;23;19997;-96
2023/08/13 06:00:29;;;;;;;3.70;2.55;;;;;;;;;;2561928;23;20005;-92
2023/08/13 06:01:29;;;;;;;3.53;2.85;;;;;;;;;;2556429;23;20074;-92
2023/08/13 06:02:30;;;;;;;4.72;2.90;;;;;;;;;;2573003;23;19992;-92
2023/08/13 06:03:30;;;;;;;4.32;3.00;;;;;;;;;;2573871;23;20054;-93
2023/08/13 06:04:34;;;;;;;4.32;2.97;;;;;;;;;;2574112;23;20059;-93
2023/08/13 06:05:37;;;;;;;3.45;2.60;;;;;;;;;;2568764;23;20070;-94
2023/08/13 06:06:38;;;;;;;4.25;2.88;;;;;;;;;;2573137;23;19996;-93
2023/08/13 06:07:38;;;;;;;3.17;2.88;;;;;;;;;;2586870;23;20011;-92
2023/08/13 06:08:39;;;;;;;5.32;3.30;;;;;;;;;;2587761;22;19996;-93
2023/08/13 06:09:39;;;;;;;4.25;2.83;;;;;;;;;;2573370;23;19997;-93
2023/08/13 06:10:40;;;;;;;3.50;3.08;;;;;;;;;;2573872;23;19992;-94
2023/08/13 06:11:40;;;;;;;3.20;2.80;;;;;;;;;;2568794;23;19996;-93
2023/08/13 06:12:40;;;;;;;3.17;2.70;;;;;;;;;;2573561;23;20061;-94
2023/08/13 06:13:41;;;;;;;3.45;2.75;;;;;;;;;;2573927;23;20001;-94
2023/08/13 06:14:42;;;;;;;4.65;2.83;;;;;;;;;;2574071;23;19996;-93
2023/08/13 06:15:43;;;;;;;4.55;2.90;;;;;;;;;;2135748;23;10105975;-93
2023/08/13 06:16:44;;;;;;;4.03;3.15;;;;;;;;;;2573816;23;20012;-94
2023/08/13 06:17:46;;;;;;;2.90;2.60;;;;;;;;;;2572434;23;20004;-96
2023/08/13 06:19:09;;;;;;;3.47;2.90;;;;;;;;;;2571416;23;20020;-93
2023/08/13 06:20:10;;;;;;;3.15;2.80;;;;;;;;;;2576427;22;20013;-93
2023/08/13 06:21:10;;;;;;;3.65;3.10;;;;;;;;;;2584344;22;19985;-93
2023/08/13 06:22:11;;;;;;;5.15;2.80;;;;;;;;;;2576290;23;19997;-94
2023/08/13 06:23:11;;;;;;;4.05;3.10;;;;;;;;;;2567292;23;20024;-93
2023/08/13 06:24:12;;;;;;;4.75;2.75;;;;;;;;;;2579025;23;20077;-92
2023/08/13 06:25:12;;;;;;;4.50;3.28;;;;;;;;;;2566546;23;19985;-94
2023/08/13 06:26:13;;;;;;;3.95;3.05;;;;;;;;;;2565126;23;20012;-94
2023/08/13 06:27:14;;;;;;;4.40;2.90;;;;;;;;;;2556401;23;20024;-93
2023/08/13 06:28:15;;;;;;;3.50;2.97;;;;;;;;;;2572936;23;19993;-92
2023/08/13 06:29:16;;;;;;;3.00;2.70;;;;;;;;;;2568766;23;20461;-93
2023/08/13 06:30:17;;;;;;;3.63;2.88;;;;;;;;;;2573411;23;20346;-94
2023/08/13 06:31:17;;;;;;;5.43;3.05;;;;;;;;;;2574098;23;20051;-95
2023/08/13 06:32:19;;;;;;;5.20;3.35;;;;;;;;;;2568664;23;20081;-95
2023/08/13 06:33:20;;;;;;;4.70;3.63;;;;;;;;;;2556600;23;20000;-94
2023/08/13 06:34:21;;;;;;;3.50;3.00;;;;;;;;;;2573262;23;20080;-94
2023/08/13 06:35:21;;;;;;;3.53;2.60;;;;;;;;;;2569076;23;20028;-95
2023/08/13 06:36:22;;;;;;;2.97;2.67;;;;;;;;;;2556939;23;20035;-94
2023/08/13 06:37:22;;;;;;;5.55;3.00;;;;;;;;;;2567504;23;20075;-93
2023/08/13 06:38:24;;;;;;;4.38;3.17;;;;;;;;;;2584458;22;19981;-94
2023/08/13 06:39:30;;;;;;;4.32;2.90;;;;;;;;;;2576745;23;19988;-94
2023/08/13 06:40:35;;;;;;;3.60;2.85;;;;;;;;;;2575515;23;19989;-93
2023/08/13 06:41:36;;;;;;;3.47;2.92;;;;;;;;;;2583727;23;20024;-94
2023/08/13 06:42:36;;;;;;;4.65;3.25;;;;;;;;;;2578501;22;20007;-93
2023/08/13 06:43:37;;;;;;;3.00;2.70;;;;;;;;;;2569934;23;19997;-92
2023/08/13 06:44:37;;;;;;;4.53;4.10;;;;;;;;;;2573913;23;20020;-92
2023/08/13 06:45:38;;;;;;;6.10;3.63;;;;;;;;;;2569399;23;20131;-93
2023/08/13 06:46:39;;;;;;;3.53;2.80;;;;;;;;;;2568920;23;20011;-93
2023/08/13 06:47:39;;;;;;;3.75;3.22;;;;;;;;;;2573231;23;19993;-94
2023/08/13 06:48:39;;;;;;;4.05;3.10;;;;;;;;;;2569142;23;20407;-91
2023/08/13 06:49:40;;;;;;;5.53;3.50;;;;;;;;;;2573120;23;20010;-94
2023/08/13 06:50:41;;;;;;;5.28;2.58;;;;;;;;;;2568898;23;19996;-94
2023/08/13 06:51:42;;;;;;;4.05;3.10;;;;;;;;;;2573136;23;20003;-95
2023/08/13 06:52:42;;;;;;;2.80;2.47;;;;;;;;;;2569121;23;20011;-94
2023/08/13 06:53:42;;;;;;;5.90;3.20;;;;;;;;;;2570952;23;20024;-94
2023/08/13 06:54:43;;;;;;;3.28;2.63;;;;;;;;;;2578837;23;20056;-93
2023/08/13 06:55:43;;;;;;;5.55;2.85;;;;;;;;;;2583667;23;19994;-93
2023/08/13 06:56:44;;;;;;;3.40;2.90;;;;;;;;;;2585041;22;19985;-95
2023/08/13 06:57:46;;;;;;;4.05;2.70;;;;;;;;;;2585441;22;20016;-95
2023/08/13 06:58:46;;;;;;;3.60;3.00;;;;;;;;;;2586952;23;20370;-93
2023/08/13 06:59:48;;;;;;;3.97;3.15;;;;;;;;;;2569053;23;19993;-94
2023/08/13 07:00:54;;;;;;;3.30;2.80;;;;;;;;;;2556555;23;20008;-93
2023/08/13 07:02:11;;;;;;;3.45;2.65;;;;;;;;;;2574185;23;20064;-94
2023/08/13 07:03:11;;;;;;;4.80;2.35;;;;;;;;;;2569555;23;20055;-93
2023/08/13 07:04:13;;;;;;;2.88;2.42;;;;;;;;;;2556949;23;20001;-92
2023/08/13 07:05:23;;;;;;;3.67;2.60;;;;;;;;;;2573597;23;19997;-93
2023/08/13 07:06:42;;;;;;;3.50;2.60;;;;;;;;;;2583977;23;20568;-95
2023/08/13 07:07:42;;;;;;;3.50;2.63;;;;;;;;;;2569867;23;20083;-93
2023/08/13 07:08:43;;;;;;;2.60;2.40;;;;;;;;;;2574572;23;20024;-92
2023/08/13 07:10:18;;;;;;;4.05;2.33;;;;;;;;;;2576255;23;19996;-93
2023/08/13 07:11:18;;;;;;;3.58;3.17;;;;;;;;;;2582162;23;20442;-93
2023/08/13 07:12:18;;;;;;;3.03;2.42;;;;;;;;;;2586487;23;19988;-95
2023/08/13 07:13:19;;;;;;;2.95;2.60;;;;;;;;;;2569897;23;20075;-92
2023/08/13 07:23:05;;;;;;;3.33;2.55;;;;;;;;;;2549338;23;19998;-93
2023/08/13 07:24:42;;;;;;;;;;;;;;;;;;2545943;23;19998;-93
2023/08/13 07:25:43;;;;;;;5.00;3.10;;;;;;;;;;2543315;23;20238;-94
2023/08/13 07:27:10;;;;;;;3.25;2.83;;;;;;;;;;2532694;23;20010;-93
2023/08/13 07:28:10;;;;;;;3.63;2.95;;;;;;;;;;2547957;23;20375;-92
2023/08/13 07:29:12;;;;;;;4.15;3.10;;;;;;;;;;2575407;23;19993;-92
2023/08/13 07:30:12;;;;;;;3.30;3.00;;;;;;;;;;2571093;23;20001;-91
2023/08/13 07:31:13;;;;;;;4.13;2.72;;;;;;;;;;2573688;23;20095;-92
2023/08/13 07:32:13;;;;;;;3.28;2.92;;;;;;;;;;2585216;22;19989;-91
2023/08/13 07:33:14;;;;;;;3.00;2.50;;;;;;;;;;2585285;22;20028;-91
2023/08/13 07:34:15;;;;;;;4.25;3.20;;;;;;;;;;2585507;22;20068;-92
2023/08/13 07:35:15;;;;;;;4.47;2.85;;;;;;;;;;2575407;23;20338;-92
2023/08/13 07:36:24;;;;;;;3.10;2.55;;;;;;;;;;2574168;23;20104;-94
2023/08/13 07:37:26;;;;;;;2.92;2.60;;;;;;;;;;2569252;23;20119;-92
2023/08/13 07:38:27;;;;;;;3.67;2.30;;;;;;;;;;2572065;23;19996;-93
2023/08/13 07:39:27;;;;;;;3.95;2.63;;;;;;;;;;2581403;23;19992;-92
2023/08/13 07:40:29;;;;;;;4.05;2.78;;;;;;;;;;2580923;23;20012;-92
2023/08/13 07:41:33;;;;;;;5.00;2.72;;;;;;;;;;2556240;23;19992;-91
2023/08/13 07:42:34;;;;;;;3.05;2.42;;;;;;;;;;2557146;23;20077;-92
2023/08/13 07:43:35;;;;;;;4.97;2.97;;;;;;;;;;2560575;23;20086;-93
2023/08/13 07:44:36;;;;;;;10.30;8.55;;;;;;;;;;2559911;23;20012;-92
2023/08/13 07:45:36;;;;;;;4.00;2.78;;;;;;;;;;2573449;23;20004;-94
2023/08/13 07:46:37;;;;;;;4.53;3.80;;;;;;;;;;2574597;23;20071;-94
2023/08/13 07:47:37;;;;;;;3.70;3.08;;;;;;;;;;2569551;23;20000;-94
2023/08/13 07:48:38;;;;;;;5.50;3.45;;;;;;;;;;2556609;23;20005;-93
2023/08/13 07:49:38;;;;;;;3.13;2.47;;;;;;;;;;2573286;23;19993;-94
2023/08/13 07:50:40;;;;;;;3.50;3.00;;;;;;;;;;2569049;23;19996;-92
2023/08/13 07:51:40;;;;;;;3.72;2.60;;;;;;;;;;2556609;23;20143;-93
2023/08/13 07:52:42;;;;;;;4.55;2.85;;;;;;;;;;2556826;23;20036;-93
2023/08/13 07:53:43;;;;;;;3.75;2.50;;;;;;;;;;2568866;23;20035;-93
2023/08/13 07:54:43;;;;;;;3.80;2.67;;;;;;;;;;2556408;23;19997;-93
2023/08/13 07:55:46;;;;;;;4.90;2.65;;;;;;;;;;2556630;23;19997;-91
2023/08/13 07:56:46;;;;;;;3.10;2.80;;;;;;;;;;2573324;23;19996;-93
2023/08/13 07:57:48;;;;;;;3.20;2.30;;;;;;;;;;2569430;23;20067;-96
2023/08/13 07:58:49;;;;;;;2.78;2.28;;;;;;;;;;2572003;23;20019;-97
2023/08/13 07:59:50;;;;;;;3.25;2.35;;;;;;;;;;2570108;23;20055;-96
2023/08/13 08:00:50;;;;;;;3.97;1.80;;;;;;;;;;2569809;23;19997;-96
2023/08/13 08:01:51;;;;;;;3.30;2.45;;;;;;;;;;2557339;23;20001;-95
2023/08/13 08:02:53;;;;;;;6.18;2.38;;;;;;;;;;2557087;23;20011;-96
2023/08/13 08:03:56;;;;;;;2.33;2.13;;;;;;;;;;2558621;23;20067;-95
2023/08/13 08:04:57;;;;;;;4.60;2.55;;;;;;;;;;2572950;23;20359;-93
2023/08/13 08:05:57;;;;;;;3.42;2.40;;;;;;;;;;2570098;23;20064;-92
2023/08/13 08:06:58;;;;;;;5.07;2.10;;;;;;;;;;2556315;23;20067;-93
2023/08/13 08:08:00;;;;;;;4.15;2.42;;;;;;;;;;2573013;23;20462;-92
2023/08/13 08:09:01;;;;;;;2.78;2.53;;;;;;;;;;2573944;23;20394;-93
2023/08/13 08:10:01;;;;;;;3.08;2.80;;;;;;;;;;2569221;23;20005;-93
2023/08/13 08:11:02;;;;;;;2.88;2.40;;;;;;;;;;2568177;23;20004;-91
2023/08/13 08:12:03;;;;;;;4.22;1.98;;;;;;;;;;2573095;23;19992;-93
2023/08/13 08:13:04;;;;;;;3.05;2.22;;;;;;;;;;2569438;23;20024;-93
2023/08/13 08:14:05;;;;;;;4.18;2.53;;;;;;;;;;2556510;23;20292;-93
2023/08/13 08:15:06;;;;;;;3.97;2.22;;;;;;;;;;2556374;23;20001;-92
2023/08/13 08:16:07;;;;;;;3.17;2.28;;;;;;;;;;2556191;23;20435;-90
2023/08/13 08:17:07;;;;;;;2.63;2.10;;;;;;;;;;2556256;23;20000;-90
2023/08/13 08:18:08;;;;;;;7.00;2.60;;;;;;;;;;2556858;23;20071;-92
2023/08/13 08:19:09;;;;;;;2.65;2.45;;;;;;;;;;2556371;23;19997;-92
2023/08/13 08:20:10;;;;;;;2.80;2.50;;;;;;;;;;2568823;23;20399;-93
2023/08/13 08:21:11;;;;;;;4.53;2.38;;;;;;;;;;2573375;23;20043;-92
2023/08/13 08:22:11;;;;;;;3.70;2.30;;;;;;;;;;2568976;23;20031;-91
2023/08/13 08:23:13;;;;;;;3.28;2.60;;;;;;;;;;2568756;23;20047;-92
2023/08/13 08:24:14;;;;;;;4.13;2.50;;;;;;;;;;2572929;23;20000;-93
2023/08/13 08:25:14;;;;;;;3.25;2.78;;;;;;;;;;2574025;23;20012;-92
2023/08/13 08:26:15;;;;;;;3.30;2.47;;;;;;;;;;2568631;23;20000;-92
2023/08/13 08:27:15;;;;;;;2.85;2.55;;;;;;;;;;2573447;23;19988;-92
2023/08/13 08:28:15;;;;;;;2.97;2.05;;;;;;;;;;2568681;23;19989;-95
2023/08/13 08:29:16;;;;;;;3.58;2.78;;;;;;;;;;2556433;23;20342;-94
2023/08/13 08:30:16;;;;;;;2.73;2.37;;;;;;;;;;2121175;23;10202137;-94
2023/08/13 08:31:17;;;;;;;2.50;2.30;;;;;;;;;;2576378;23;20007;-93
2023/08/13 08:32:17;;;;;;;2.60;2.40;;;;;;;;;;2573922;23;19992;-92
2023/08/13 08:33:21;;;;;;;3.55;2.50;;;;;;;;;;2573613;23;20337;-94
2023/08/13 08:34:21;;;;;;;5.10;2.25;;;;;;;;;;2568948;23;20019;-94
2023/08/13 08:35:22;;;;;;;2.20;1.98;;;;;;;;;;2556328;23;20443;-93
2023/08/13 08:36:22;;;;;;;2.88;2.30;;;;;;;;;;2572877;23;20413;-93
2023/08/13 08:37:22;;;;;;;5.97;2.58;;;;;;;;;;2568728;23;19988;-93
2023/08/13 08:38:23;;;;;;;4.32;2.70;;;;;;;;;;2556226;23;20562;-93
2023/08/13 08:39:23;;;;;;;6.60;2.50;;;;;;;;;;2568726;23;20150;-93
2023/08/13 08:40:24;;;;;;;3.70;2.45;;;;;;;;;;2573257;23;20068;-94
2023/08/13 08:41:27;;;;;;;2.85;2.40;;;;;;;;;;2568469;23;20019;-94
2023/08/13 08:42:51;;;;;;;4.45;2.50;;;;;;;;;;2561440;23;20002;-93
2023/08/13 08:43:50;;;;;;;4.28;2.67;;;;;;;;;;2569345;23;20447;-93
2023/08/13 08:44:51;;;;;;;4.43;2.42;;;;;;;;;;2574016;23;20030;-95
2023/08/13 08:45:52;;;;;;;3.50;2.63;;;;;;;;;;2581665;22;20031;-94
2023/08/13 08:46:53;;;;;;;2.40;2.20;;;;;;;;;;2568900;23;20062;-92
2023/08/13 08:47:54;;;;;;;3.80;2.20;;;;;;;;;;2556270;23;19996;-94
2023/08/13 08:48:56;;;;;;;5.32;2.15;;;;;;;;;;2556381;23;20300;-92
2023/08/13 08:50:02;;;;;;;4.50;2.45;;;;;;;;;;2573065;23;19997;-92
2023/08/13 08:51:03;;;;;;;4.72;2.60;;;;;;;;;;2581808;23;20058;-93
2023/08/13 08:52:07;;;;;;;2.38;2.17;;;;;;;;;;2585862;23;20327;-92
2023/08/13 08:53:08;;;;;;;2.45;1.95;;;;;;;;;;2573376;23;20000;-93
2023/08/13 08:54:08;;;;;;;3.78;2.60;;;;;;;;;;2573720;23;19993;-92
2023/08/13 08:55:11;;;;;;;4.38;2.35;;;;;;;;;;2581343;22;19992;-92
2023/08/13 08:56:11;;;;;;;4.00;2.08;;;;;;;;;;2568735;23;19992;-93
2023/08/13 08:57:12;;;;;;;2.58;2.33;;;;;;;;;;2556301;23;19997;-93
2023/08/13 08:58:13;;;;;;;2.75;2.30;;;;;;;;;;2556271;23;20446;-93
2023/08/13 08:59:14;;;;;;;2.33;1.95;;;;;;;;;;2573125;23;20073;-92
2023/08/13 09:00:16;;;;;;;3.92;2.20;;;;;;;;;;2573685;23;20015;-93
2023/08/13 09:01:16;;;;;;;2.88;2.22;;;;;;;;;;2568834;23;19989;-92
2023/08/13 09:02:17;;;;;;;3.35;2.30;;;;;;;;;;2556748;23;20071;-92
2023/08/13 09:03:17;;;;;;;4.60;2.30;;;;;;;;;;2572632;23;20371;-94
2023/08/13 09:04:18;;;;;;;5.60;2.58;;;;;;;;;;2569059;23;19992;-94
2023/08/13 09:05:20;;;;;;;3.20;2.20;;;;;;;;;;2556306;23;19989;-92
2023/08/13 09:06:20;;;;;;;2.90;2.03;;;;;;;;;;2556699;23;20000;-91
2023/08/13 09:09:17;;;;;;;26.00;21.23;;;;;;;;;;2573337;23;20079;-95
2023/08/13 09:10:17;;;;;;;15.85;11.60;;;;;;;;;;2569190;23;19993;-93
2023/08/13 09:11:18;;;;;;;12.63;10.05;;;;;;;;;;2556631;23;20019;-93
2023/08/13 09:12:19;;;;;;;12.88;8.88;;;;;;;;;;2569342;23;20050;-93
2023/08/13 09:13:20;;;;;;;21.77;17.27;;;;;;;;;;2573339;23;20000;-94
2023/08/13 09:16:52;;;;;;;9.50;8.00;;;;;;;;;;2574727;23;20411;-93
2023/08/13 09:18:10;;;;;;;4.57;3.40;;;;;;;;;;2570315;23;20354;-92
2023/08/13 09:19:24;;;;;;;;;;;;;;;;;;;;;
2023/08/13 09:21:03;;;;;;;2.30;2.10;;;;;;;;;;2580062;23;20030;-91
2023/08/13 09:22:07;;;;;;;3.58;2.25;;;;;;;;;;2570267;23;19993;-96
2023/08/13 09:23:45;;;;;;;4.50;2.55;;;;;;;;;;2571739;23;19992;-93
2023/08/13 09:28:35;;;;;;;3.63;2.10;;;;;;;;;;2542962;23;19920;-93
2023/08/13 09:35:41;;;;;;;4.28;2.10;;;;;;;;;;2586806;23;20075;-93
2023/08/13 09:38:36;;;;;;;6.00;2.25;;;;;;;;;;2543401;23;20486;-92
2023/08/13 09:40:30;;;;;;;3.15;2.00;;;;;;;;;;2547908;23;20001;-94
2023/08/13 09:42:15;;;;;;;2.75;2.00;;;;;;;;;;2528689;23;19994;-95
2023/08/13 09:43:20;;;;;;;5.95;2.17;;;;;;;;;;2527722;23;20106;-93
2023/08/13 09:44:26;;;;;;;4.20;2.15;;;;;;;;;;2568599;23;20088;-92